Time;durP1;ratioP1;P1;durP2;ratioP2;P2;SDS_P1;SDS_P2;PMS_P1;PMS_P2;Temp;Humidity;BMP_temperature;BMP_pressure;BME280_temperature;BME280_humidity;BME280_pressure;Samples;Min_cycle;Max_cycle;Signal;HPM_P1;HPM_P2
2020/12/01 00:00:14;;;;;;;20.45;11.35;;;3.00;94.40;;;;;;8370538;28;20468;-70
2020/12/01 00:04:17;;;;;;;18.65;9.98;;;3.20;94.40;;;;;;8361376;28;20457;-70
2020/12/01 00:08:19;;;;;;;19.52;10.82;;;3.40;94.60;;;;;;8360477;28;20049;-70
2020/12/01 00:12:20;;;;;;;17.77;9.53;;;3.10;94.40;;;;;;8360690;28;20929;-69
2020/12/01 00:16:22;;;;;;;20.13;10.60;;;3.10;94.30;;;;;;8361428;28;20045;-69
2020/12/01 00:20:24;;;;;;;17.43;9.57;;;3.10;94.40;;;;;;8366152;28;20114;-69
2020/12/01 00:24:25;;;;;;;15.77;8.88;;;3.10;94.40;;;;;;8374414;28;20539;-69
2020/12/01 00:28:27;;;;;;;18.10;9.83;;;3.10;94.40;;;;;;8372678;28;20045;-69
2020/12/01 00:32:30;;;;;;;17.00;9.63;;;3.10;94.40;;;;;;8354364;28;21363;-69
2020/12/01 00:36:32;;;;;;;15.40;9.43;;;3.60;94.60;;;;;;8369722;28;20052;-69
2020/12/01 00:40:33;;;;;;;17.53;9.83;;;3.20;94.60;;;;;;8348516;28;20079;-70
2020/12/01 00:44:35;;;;;;;17.70;9.43;;;3.20;94.50;;;;;;8375968;28;20057;-70
2020/12/01 00:48:36;;;;;;;16.45;9.45;;;3.20;94.50;;;;;;8363172;28;20056;-71
2020/12/01 00:52:38;;;;;;;18.43;8.70;;;3.20;94.50;;;;;;8363236;28;20072;-71
2020/12/01 00:56:39;;;;;;;16.80;9.60;;;3.30;94.50;;;;;;8358557;28;20453;-70
2020/12/01 01:00:42;;;;;;;15.70;9.18;;;3.30;94.50;;;;;;8361083;28;20110;-70
2020/12/01 01:04:50;;;;;;;15.52;8.98;;;3.30;94.50;;;;;;8354307;28;20379;-69
2020/12/01 01:08:51;;;;;;;16.92;8.52;;;3.30;94.50;;;;;;8360897;28;20056;-69
2020/12/01 01:12:53;;;;;;;16.48;8.82;;;3.30;94.50;;;;;;8368888;28;20044;-70
2020/12/01 01:16:54;;;;;;;15.32;9.35;;;3.30;94.50;;;;;;8376022;28;20052;-70
2020/12/01 01:20:56;;;;;;;16.60;9.03;;;4.00;94.80;;;;;;8358230;28;20536;-69
2020/12/01 01:24:57;;;;;;;14.73;8.05;;;3.40;94.60;;;;;;8374930;28;20483;-69
2020/12/01 01:28:59;;;;;;;16.30;8.93;;;3.30;94.60;;;;;;8367273;28;20055;-69
2020/12/01 01:33:00;;;;;;;18.30;8.60;;;3.50;94.60;;;;;;8363530;28;20533;-69
2020/12/01 01:37:04;;;;;;;15.83;8.57;;;3.40;94.60;;;;;;8367222;28;20057;-69
2020/12/01 01:41:06;;;;;;;14.75;8.15;;;3.60;94.60;;;;;;8363358;28;20084;-69
2020/12/01 01:45:09;;;;;;;15.07;8.13;;;3.90;94.80;;;;;;8365961;28;20048;-69
2020/12/01 01:49:14;;;;;;;13.77;8.10;;;3.20;94.50;;;;;;8372801;28;20569;-70
2020/12/01 01:53:15;;;;;;;14.13;7.97;;;3.50;94.70;;;;;;8364072;28;20056;-69
2020/12/01 01:57:17;;;;;;;16.73;8.85;;;3.50;94.60;;;;;;8374731;28;20606;-69
2020/12/01 02:01:23;;;;;;;13.00;7.60;;;4.20;94.80;;;;;;8363899;28;20045;-69
2020/12/01 02:05:24;;;;;;;14.77;8.75;;;3.50;94.60;;;;;;8373676;28;20127;-69
2020/12/01 02:09:28;;;;;;;15.67;9.03;;;3.70;94.70;;;;;;8367439;28;20044;-69
2020/12/01 02:13:50;;;;;;;12.43;7.93;;;3.50;94.60;;;;;;8374661;28;20041;-69
2020/12/01 02:17:51;;;;;;;13.27;7.70;;;3.60;94.70;;;;;;8364374;28;20052;-70
2020/12/01 02:21:55;;;;;;;13.87;8.03;;;3.50;94.70;;;;;;8361510;28;20796;-69
2020/12/01 02:26:01;;;;;;;11.93;6.97;;;3.50;94.70;;;;;;8371208;28;20518;-70
2020/12/01 02:30:03;;;;;;;14.05;7.85;;;3.60;94.80;;;;;;8361840;28;20591;-71
2020/12/01 02:34:11;;;;;;;12.93;7.53;;;4.40;95.00;;;;;;8364431;28;20094;-69
2020/12/01 02:38:12;;;;;;;13.18;7.80;;;3.60;94.70;;;;;;8363421;28;20049;-69
2020/12/01 02:42:20;;;;;;;13.80;7.40;;;4.00;94.80;;;;;;8363812;28;20048;-69
2020/12/01 02:46:23;;;;;;;13.55;7.68;;;3.60;94.70;;;;;;8372718;28;20613;-69
2020/12/01 02:50:25;;;;;;;11.00;7.00;;;3.70;94.80;;;;;;8364342;28;20117;-68
2020/12/01 02:54:39;;;;;;;10.95;6.80;;;3.70;94.70;;;;;;8362637;28;20080;-68
2020/12/01 02:58:40;;;;;;;10.43;6.35;;;3.70;94.80;;;;;;8362226;28;20041;-69
2020/12/01 03:02:42;;;;;;;12.32;6.70;;;3.70;94.70;;;;;;8372296;28;20051;-68
2020/12/01 03:06:44;;;;;;;13.07;7.13;;;4.20;94.90;;;;;;8343689;28;20052;-70
2020/12/01 03:10:45;;;;;;;10.97;6.37;;;4.10;94.80;;;;;;8370872;28;20056;-70
2020/12/01 03:14:47;;;;;;;12.60;6.90;;;4.50;95.00;;;;;;8363657;28;20064;-70
2020/12/01 03:18:48;;;;;;;11.13;6.47;;;3.80;94.70;;;;;;8364294;28;20488;-70
2020/12/01 03:22:49;;;;;;;10.17;6.10;;;3.80;94.70;;;;;;8369549;28;20469;-70
2020/12/01 03:26:51;;;;;;;9.73;6.37;;;3.90;94.80;;;;;;8364685;28;20139;-70
2020/12/01 03:30:52;;;;;;;8.67;6.13;;;3.90;94.80;;;;;;8360959;28;20469;-70
2020/12/01 03:34:54;;;;;;;8.63;5.63;;;3.90;94.80;;;;;;8367659;28;20113;-70
2020/12/01 03:38:55;;;;;;;8.67;5.97;;;3.90;94.80;;;;;;8370863;28;20093;-70
2020/12/01 03:42:56;;;;;;;9.40;5.97;;;3.90;94.80;;;;;;8362815;28;20044;-70
2020/12/01 03:46:58;;;;;;;9.57;5.97;;;3.90;94.80;;;;;;8361415;28;20503;-70
2020/12/01 03:50:59;;;;;;;10.60;5.67;;;4.00;94.80;;;;;;8370695;28;20072;-71
2020/12/01 03:55:01;;;;;;;9.50;5.83;;;4.10;94.80;;;;;;8359168;28;20535;-69
2020/12/01 03:59:02;;;;;;;8.70;5.45;;;3.70;94.80;;;;;;8365483;28;20155;-69
2020/12/01 04:03:04;;;;;;;7.97;5.27;;;4.00;94.90;;;;;;8360164;28;20402;-69
2020/12/01 04:07:05;;;;;;;8.10;5.30;;;4.00;94.90;;;;;;8361256;28;20197;-69
2020/12/01 04:11:06;;;;;;;10.00;5.70;;;4.00;94.80;;;;;;8358438;28;20037;-69
2020/12/01 04:15:08;;;;;;;9.10;5.50;;;4.00;94.80;;;;;;8386944;28;20101;-70
2020/12/01 04:19:10;;;;;;;15.27;5.95;;;4.00;94.80;;;;;;8359002;28;20053;-70
2020/12/01 04:23:11;;;;;;;11.70;6.67;;;3.90;94.80;;;;;;8356092;28;20958;-69
2020/12/01 04:27:14;;;;;;;11.63;6.07;;;3.90;95.00;;;;;;8360709;28;20103;-69
2020/12/01 04:31:15;;;;;;;11.10;5.88;;;4.30;95.00;;;;;;8356980;28;20428;-69
2020/12/01 04:35:19;;;;;;;11.60;5.10;;;3.90;95.00;;;;;;8364212;28;20449;-69
2020/12/01 04:39:20;;;;;;;8.32;4.78;;;3.80;94.90;;;;;;8362533;28;20090;-70
2020/12/01 04:43:40;;;;;;;10.43;5.22;;;3.80;95.00;;;;;;8360319;28;20060;-69
2020/12/01 04:47:53;;;;;;;9.15;5.28;;;4.20;95.10;;;;;;8359175;28;20041;-70
2020/12/01 04:52:01;;;;;;;8.60;6.00;;;3.80;95.10;;;;;;8367437;28;20074;-70
2020/12/01 04:56:40;;;;;;;9.18;5.38;;;3.80;95.10;;;;;;8366294;28;20040;-69
2020/12/01 05:00:56;;;;;;;10.43;5.88;;;3.80;95.10;;;;;;8353773;28;20726;-70
2020/12/01 05:05:05;;;;;;;8.70;5.45;;;3.80;95.10;;;;;;8374956;28;20045;-69
2020/12/01 05:09:45;;;;;;;10.10;6.13;;;3.80;95.10;;;;;;8365138;28;20094;-70
2020/12/01 05:13:56;;;;;;;10.90;5.60;;;3.90;95.10;;;;;;8297840;28;20044;-70
2020/12/01 05:18:18;;;;;;;7.78;4.70;;;3.90;95.10;;;;;;8372172;28;20044;-70
2020/12/01 05:22:21;;;;;;;7.55;5.00;;;3.50;95.40;;;;;;8374741;28;20055;-70
2020/12/01 05:26:22;;;;;;;10.00;6.15;;;4.00;95.60;;;;;;8365206;28;20048;-70
2020/12/01 05:30:24;;;;;;;8.55;5.57;;;4.00;95.10;;;;;;8366432;28;20105;-70
2020/12/01 05:34:25;;;;;;;9.73;6.10;;;4.00;95.10;;;;;;8364210;28;20048;-71
2020/12/01 05:38:28;;;;;;;7.13;4.80;;;4.10;95.20;;;;;;8372872;28;20048;-70
2020/12/01 05:42:30;;;;;;;8.15;5.43;;;4.00;95.20;;;;;;8364703;28;20083;-71
2020/12/01 05:46:36;;;;;;;8.00;4.90;;;4.00;95.30;;;;;;8365953;28;20059;-70
2020/12/01 05:50:54;;;;;;;7.93;4.97;;;4.60;95.40;;;;;;8378615;28;20481;-71
2020/12/01 05:55:19;;;;;;;8.20;4.97;;;4.10;95.30;;;;;;8346000;28;20052;-70
2020/12/01 05:59:22;;;;;;;8.32;4.82;;;4.10;95.30;;;;;;8370069;28;20068;-70
2020/12/01 06:03:33;;;;;;;7.95;4.82;;;4.10;95.50;;;;;;8365028;28;20134;-71
2020/12/01 06:07:36;;;;;;;7.38;5.10;;;4.10;95.60;;;;;;8372083;28;20472;-71
2020/12/01 06:11:52;;;;;;;7.95;5.10;;;4.20;95.50;;;;;;8361858;28;20513;-70
2020/12/01 06:16:21;;;;;;;8.45;5.15;;;4.10;95.50;;;;;;8363356;28;20438;-68
2020/12/01 06:20:31;;;;;;;7.70;4.70;;;4.20;95.40;;;;;;8368591;28;20086;-69
2020/12/01 06:24:51;;;;;;;7.60;4.88;;;4.10;95.40;;;;;;8371432;28;20093;-71
2020/12/01 06:29:08;;;;;;;7.63;5.15;;;4.10;95.50;;;;;;8361219;28;20067;-70
2020/12/01 06:33:47;;;;;;;9.65;5.68;;;4.10;95.60;;;;;;8363664;28;20052;-69
2020/12/01 06:38:10;;;;;;;8.93;5.60;;;4.10;95.40;;;;;;8362895;28;20052;-69
2020/12/01 06:42:24;;;;;;;8.18;5.45;;;3.50;95.50;;;;;;8365399;28;20557;-69
2020/12/01 06:46:38;;;;;;;10.07;5.90;;;4.10;95.60;;;;;;8371336;28;20048;-69
2020/12/01 06:50:49;;;;;;;8.45;5.72;;;4.10;95.50;;;;;;8387555;28;20048;-70
2020/12/01 06:54:56;;;;;;;9.27;5.72;;;4.20;95.60;;;;;;8362560;28;20060;-71
2020/12/01 06:59:07;;;;;;;7.75;4.78;;;4.20;95.70;;;;;;8357260;28;20087;-71
2020/12/01 07:03:09;;;;;;;10.27;6.25;;;4.30;95.70;;;;;;8362450;28;20072;-70
2020/12/01 07:07:28;;;;;;;10.65;5.75;;;4.40;95.80;;;;;;8370639;28;20041;-70
2020/12/01 07:11:32;;;;;;;9.27;5.35;;;4.40;95.60;;;;;;8369917;28;20048;-71
2020/12/01 07:15:43;;;;;;;9.07;5.18;;;4.40;95.50;;;;;;8360418;28;20118;-71
2020/12/01 07:19:59;;;;;;;9.95;5.65;;;4.40;95.50;;;;;;8359187;28;20052;-72
2020/12/01 07:24:26;;;;;;;8.52;5.78;;;4.50;95.60;;;;;;8358425;28;20052;-71
2020/12/01 07:28:36;;;;;;;9.35;6.20;;;4.60;95.60;;;;;;8357836;28;20458;-71
2020/12/01 07:32:58;;;;;;;10.05;6.60;;;4.70;95.40;;;;;;8369244;28;20114;-71
2020/12/01 07:37:19;;;;;;;;;;;4.80;95.30;;;;;;8362838;28;20044;-71
2020/12/01 07:41:30;;;;;;;10.25;6.72;;;4.90;95.60;;;;;;8372699;28;19931;-72
2020/12/01 07:45:33;;;;;;;8.80;6.50;;;4.90;95.30;;;;;;8358940;28;20119;-71
2020/12/01 07:49:34;;;;;;;8.27;5.20;;;5.00;95.20;;;;;;8363039;28;20053;-71
2020/12/01 07:53:42;;;;;;;8.25;5.22;;;5.10;95.10;;;;;;8371102;28;20124;-71
2020/12/01 07:58:03;;;;;;;8.15;4.88;;;5.80;95.20;;;;;;8360399;28;20075;-71
2020/12/01 08:02:06;;;;;;;9.40;4.97;;;5.20;95.10;;;;;;8373365;28;20063;-71
2020/12/01 08:06:10;;;;;;;;;;;5.20;95.00;;;;;;8362382;28;20056;-71
2020/12/01 08:10:13;;;;;;;7.55;4.80;;;5.30;95.10;;;;;;8363938;28;19935;-71
2020/12/01 08:14:16;;;;;;;8.38;4.55;;;5.20;95.00;;;;;;8364103;28;20055;-71
2020/12/01 08:18:20;;;;;;;6.80;4.72;;;5.30;94.90;;;;;;8343199;28;20399;-71
2020/12/01 08:22:29;;;;;;;7.63;5.00;;;5.30;95.00;;;;;;8359897;28;20048;-71
2020/12/01 08:26:33;;;;;;;7.65;4.90;;;5.30;94.90;;;;;;8362707;28;20139;-68
2020/12/01 08:30:44;;;;;;;8.40;5.15;;;5.30;94.90;;;;;;8362945;28;20056;-69
2020/12/01 08:35:12;;;;;;;9.10;4.90;;;5.20;95.00;;;;;;8370512;28;20517;-69
2020/12/01 08:39:33;;;;;;;7.82;4.78;;;5.20;95.00;;;;;;8326262;28;20049;-69
2020/12/01 08:43:44;;;;;;;6.47;4.78;;;5.20;95.10;;;;;;8364118;28;20060;-69
2020/12/01 08:47:46;;;;;;;9.27;5.03;;;5.10;95.20;;;;;;8342669;28;20040;-69
2020/12/01 08:51:52;;;;;;;8.70;5.30;;;5.00;95.20;;;;;;8359716;28;20078;-69
2020/12/01 08:55:57;;;;;;;8.43;5.57;;;5.00;95.30;;;;;;8379550;28;20418;-69
2020/12/01 09:00:09;;;;;;;10.18;6.07;;;5.00;95.30;;;;;;8358991;28;20448;-69
2020/12/01 09:04:21;;;;;;;10.80;5.95;;;4.90;95.50;;;;;;8358724;28;20421;-69
2020/12/01 09:25:03;;;;;;;8.60;5.85;;;4.90;95.70;;;;;;8358203;28;20052;-69
2020/12/01 09:29:05;;;;;;;8.27;5.80;;;4.80;96.00;;;;;;8360058;28;20040;-69
2020/12/01 09:33:09;;;;;;;7.20;4.65;;;4.80;96.20;;;;;;8360967;28;20098;-69
2020/12/01 09:37:11;;;;;;;8.55;5.82;;;4.90;96.40;;;;;;8369602;28;20450;-69
2020/12/01 09:41:15;;;;;;;7.93;5.53;;;4.90;96.70;;;;;;8361511;28;20049;-69
2020/12/01 09:45:31;;;;;;;7.43;5.43;;;4.90;96.20;;;;;;8363314;28;20477;-69
2020/12/01 09:49:32;;;;;;;8.88;4.93;;;5.00;96.10;;;;;;8375246;28;20448;-69
2020/12/01 09:54:08;;;;;;;9.03;5.60;;;5.00;96.70;;;;;;8372898;28;20083;-70
2020/12/01 10:29:20;;;;;;;8.25;5.43;;;5.30;97.60;;;;;;8360797;28;20612;-68
2020/12/01 10:33:52;;;;;;;7.93;5.47;;;5.30;97.40;;;;;;8367034;28;20044;-69
2020/12/01 10:36:43;;;;;;;9.07;5.90;;;5.40;97.70;;;;;;8357466;28;20083;-68
2020/12/01 10:40:45;;;;;;;9.07;6.57;;;5.50;97.10;;;;;;8355858;28;20465;-68
2020/12/01 10:44:46;;;;;;;9.93;6.87;;;5.50;96.80;;;;;;8363651;28;20113;-68
2020/12/01 10:48:48;;;;;;;10.83;6.63;;;5.50;96.80;;;;;;8365909;28;20052;-69
2020/12/01 10:52:49;;;;;;;8.70;6.27;;;6.50;97.10;;;;;;8363877;28;20477;-69
2020/12/01 10:56:52;;;;;;;11.80;6.97;;;5.50;97.00;;;;;;8365538;28;20048;-68
2020/12/01 11:00:54;;;;;;;10.63;7.03;;;5.50;97.00;;;;;;8373181;28;20418;-68
2020/12/01 11:04:55;;;;;;;10.15;7.05;;;5.60;97.20;;;;;;8367477;28;20502;-68
2020/12/01 11:08:56;;;;;;;8.90;7.40;;;5.60;97.70;;;;;;8363517;28;20468;-68
2020/12/01 11:12:58;;;;;;;11.53;7.53;;;5.60;97.60;;;;;;8364533;28;20954;-68
2020/12/01 11:16:59;;;;;;;12.70;7.43;;;5.70;97.80;;;;;;8366706;28;20469;-68
2020/12/01 11:21:01;;;;;;;12.10;8.37;;;5.70;97.90;;;;;;8362317;28;20090;-69
2020/12/01 11:25:03;;;;;;;15.03;8.37;;;5.60;97.80;;;;;;8356014;28;20044;-68
2020/12/01 11:29:05;;;;;;;13.60;9.30;;;5.60;97.70;;;;;;8362483;28;20555;-69
2020/12/01 11:33:07;;;;;;;14.70;9.10;;;5.70;97.60;;;;;;8374829;28;20056;-69
2020/12/01 11:37:09;;;;;;;14.25;8.88;;;5.70;97.70;;;;;;8333079;28;20098;-68
2020/12/01 11:41:11;;;;;;;15.73;10.63;;;5.70;98.00;;;;;;8362963;28;20049;-68
2020/12/01 11:45:14;;;;;;;16.15;10.10;;;5.70;98.00;;;;;;8370377;28;20862;-69
2020/12/01 11:49:16;;;;;;;16.92;11.73;;;5.70;97.70;;;;;;8364677;28;20045;-69
2020/12/01 11:53:18;;;;;;;16.27;10.95;;;5.80;97.40;;;;;;8358285;28;20056;-68
2020/12/01 11:57:19;;;;;;;13.73;10.00;;;5.80;97.40;;;;;;8357269;28;20064;-69
2020/12/01 12:01:21;;;;;;;20.83;11.77;;;5.80;97.80;;;;;;8359836;28;20053;-69
2020/12/01 12:05:22;;;;;;;17.42;10.88;;;5.60;97.80;;;;;;8368675;28;20102;-68
2020/12/01 12:09:24;;;;;;;17.37;11.13;;;5.80;97.80;;;;;;8366938;28;20048;-68
2020/12/01 12:13:26;;;;;;;18.53;12.07;;;5.80;97.70;;;;;;8390352;28;20307;-68
2020/12/01 12:17:28;;;;;;;18.75;11.00;;;5.80;97.80;;;;;;8386360;28;20109;-68
2020/12/01 12:21:29;;;;;;;16.90;11.27;;;5.80;97.90;;;;;;8397016;28;20406;-68
2020/12/01 12:25:31;;;;;;;15.98;9.65;;;5.80;98.10;;;;;;8392423;28;20541;-68
2020/12/01 12:29:33;;;;;;;;;;;5.80;98.30;;;;;;8373663;28;20068;-69
2020/12/01 12:33:34;;;;;;;20.13;12.30;;;6.00;98.90;;;;;;8392819;28;19928;-69
2020/12/01 12:37:36;;;;;;;17.23;11.20;;;5.70;98.50;;;;;;8367596;28;20132;-68
2020/12/01 12:41:38;;;;;;;18.93;11.43;;;5.70;98.70;;;;;;8393506;28;20200;-68
2020/12/01 12:45:40;;;;;;;19.15;10.77;;;5.70;98.80;;;;;;8393443;28;20044;-69
2020/12/01 12:49:41;;;;;;;19.57;12.03;;;5.70;99.00;;;;;;8393209;28;20130;-68
2020/12/01 12:53:42;;;;;;;17.60;11.33;;;5.70;99.20;;;;;;8379804;28;20102;-68
2020/12/01 12:57:44;;;;;;;25.80;14.33;;;5.70;99.00;;;;;;8399717;28;20114;-68
2020/12/01 13:01:45;;;;;;;25.10;13.93;;;5.70;98.90;;;;;;8387414;28;20326;-68
2020/12/01 13:05:47;;;;;;;21.87;12.87;;;5.70;98.80;;;;;;8392416;27;20048;-68
2020/12/01 13:09:48;;;;;;;24.53;13.47;;;5.70;98.90;;;;;;8393112;28;20090;-69
2020/12/01 13:13:50;;;;;;;25.07;15.17;;;5.80;98.60;;;;;;8378803;28;20854;-68
2020/12/01 13:17:51;;;;;;;23.17;14.07;;;5.80;98.40;;;;;;8398561;28;20048;-68
2020/12/01 13:21:53;;;;;;;24.20;14.35;;;5.80;98.30;;;;;;8392589;28;20052;-68
2020/12/01 13:25:54;;;;;;;24.57;15.13;;;5.80;98.20;;;;;;8390860;28;20093;-68
2020/12/01 13:29:56;;;;;;;24.63;14.93;;;5.80;98.20;;;;;;8397290;28;20965;-69
2020/12/01 13:33:57;;;;;;;25.03;15.03;;;5.80;98.20;;;;;;8410443;28;20044;-68
2020/12/01 13:37:59;;;;;;;23.50;13.85;;;5.80;98.20;;;;;;8393912;28;20048;-69
2020/12/01 13:42:00;;;;;;;27.43;14.70;;;5.80;98.30;;;;;;8393969;28;20040;-69
2020/12/01 13:46:02;;;;;;;22.27;14.40;;;5.80;98.30;;;;;;8398286;28;20093;-69
2020/12/01 13:50:06;;;;;;;26.40;16.13;;;5.80;98.20;;;;;;8406750;28;20068;-68
2020/12/01 13:54:08;;;;;;;24.35;15.55;;;5.80;98.10;;;;;;8396381;28;20048;-69
2020/12/01 13:58:10;;;;;;;26.83;16.77;;;5.90;97.80;;;;;;8401888;28;20062;-68
2020/12/01 14:02:11;;;;;;;25.80;15.98;;;6.00;97.70;;;;;;8394965;27;20529;-69
2020/12/01 14:06:17;;;;;;;25.13;14.73;;;5.90;97.50;;;;;;8401398;28;20047;-69
2020/12/01 14:10:20;;;;;;;21.75;11.90;;;5.90;98.10;;;;;;8402548;28;20098;-70
2020/12/01 14:14:22;;;;;;;27.20;14.10;;;5.90;98.40;;;;;;8405112;28;20614;-68
2020/12/01 14:18:24;;;;;;;30.73;17.83;;;5.90;98.30;;;;;;8399986;28;20051;-68
2020/12/01 14:22:26;;;;;;;25.57;13.50;;;5.90;98.10;;;;;;8390565;27;20040;-69
2020/12/01 14:26:27;;;;;;;;;;;5.90;98.20;;;;;;8384849;27;20574;-71
2020/12/01 14:30:29;;;;;;;26.67;13.80;;;5.90;98.80;;;;;;8396363;28;19974;-69
2020/12/01 14:34:30;;;;;;;32.80;15.20;;;5.90;98.50;;;;;;8394484;28;20561;-68
2020/12/01 14:38:31;;;;;;;26.93;15.23;;;5.90;98.60;;;;;;8392015;28;20518;-69
2020/12/01 14:42:35;;;;;;;28.30;15.48;;;5.90;98.30;;;;;;8395632;28;23204;-68
2020/12/01 14:46:48;;;;;;;29.52;16.30;;;5.90;98.00;;;;;;8406167;28;20098;-68
2020/12/01 14:51:17;;;;;;;23.13;13.75;;;5.90;97.90;;;;;;8392246;28;20059;-67
2020/12/01 14:55:58;;;;;;;27.58;14.35;;;6.00;98.00;;;;;;8393934;28;20123;-66
2020/12/01 15:00:08;;;;;;;31.60;16.30;;;6.00;98.40;;;;;;8392130;28;20078;-67
2020/12/01 15:04:19;;;;;;;29.70;16.70;;;5.90;98.30;;;;;;8397805;28;20052;-68
2020/12/01 15:08:58;;;;;;;26.63;15.45;;;6.00;98.10;;;;;;8395220;28;20509;-67
2020/12/01 15:13:00;;;;;;;24.95;15.43;;;6.80;98.40;;;;;;8408087;28;20097;-67
2020/12/01 15:17:10;;;;;;;25.17;13.27;;;6.00;97.90;;;;;;8393638;28;20044;-67
2020/12/01 15:21:16;;;;;;;33.15;18.85;;;6.10;98.00;;;;;;8394511;28;20043;-67
2020/12/01 15:25:23;;;;;;;34.22;17.67;;;6.10;98.00;;;;;;8396956;28;20054;-67
2020/12/01 15:29:25;;;;;;;29.08;14.95;;;6.10;98.00;;;;;;8393020;28;20670;-69
2020/12/01 15:33:28;;;;;;;30.13;15.45;;;6.00;98.00;;;;;;8400882;28;20056;-69
2020/12/01 15:37:31;;;;;;;31.20;16.45;;;6.10;97.90;;;;;;8406832;28;20047;-69
2020/12/01 15:41:32;;;;;;;;;;;6.10;97.70;;;;;;8384717;28;20058;-69
2020/12/01 15:45:34;;;;;;;24.38;14.25;;;6.10;98.20;;;;;;8390727;27;19949;-69
2020/12/01 15:49:36;;;;;;;26.48;16.58;;;6.00;98.00;;;;;;8401959;28;20048;-69
2020/12/01 15:53:53;;;;;;;23.17;13.65;;;6.10;97.60;;;;;;8395425;28;20402;-69
2020/12/01 15:58:28;;;;;;;24.63;13.95;;;6.10;97.70;;;;;;8390697;28;20594;-69
2020/12/01 16:02:48;;;;;;;24.20;13.85;;;6.10;97.70;;;;;;8390676;28;20421;-69
2020/12/01 16:07:36;;;;;;;20.27;12.27;;;6.10;98.00;;;;;;8404180;28;20136;-69
2020/12/01 16:12:02;;;;;;;22.42;14.15;;;6.10;97.90;;;;;;8393851;28;20043;-69
2020/12/01 16:16:03;;;;;;;20.13;10.55;;;6.10;97.40;;;;;;8398827;28;20060;-69
2020/12/01 16:20:20;;;;;;;21.60;13.90;;;6.10;97.80;;;;;;8401961;28;20056;-69
2020/12/01 16:24:28;;;;;;;21.80;12.15;;;6.10;97.80;;;;;;8394820;28;20091;-69
2020/12/01 16:28:30;;;;;;;20.63;13.00;;;6.80;98.00;;;;;;8390075;28;20584;-69
2020/12/01 16:32:33;;;;;;;22.77;13.37;;;6.10;97.80;;;;;;8389740;28;20108;-69
2020/12/01 16:36:57;;;;;;;64.20;37.40;;;6.00;97.70;;;;;;8405283;28;20044;-69
2020/12/01 16:41:16;;;;;;;53.78;36.58;;;6.00;97.70;;;;;;8400274;28;20040;-69
2020/12/01 16:45:21;;;;;;;18.73;9.48;;;6.10;97.90;;;;;;8395590;28;20048;-69
2020/12/01 16:50:11;;;;;;;26.73;17.77;;;6.00;98.40;;;;;;8391282;27;20558;-69
2020/12/01 16:54:42;;;;;;;23.80;14.27;;;6.00;98.10;;;;;;8351332;28;20045;-69
2020/12/01 16:59:11;;;;;;;19.55;11.82;;;6.00;98.20;;;;;;8394307;28;20040;-69
2020/12/01 17:03:29;;;;;;;30.65;15.93;;;5.90;98.20;;;;;;8358810;28;20059;-69
2020/12/01 17:07:30;;;;;;;29.67;18.17;;;6.00;98.10;;;;;;8378008;28;20063;-69
2020/12/01 17:11:52;;;;;;;19.08;11.85;;;6.00;98.00;;;;;;8375941;28;21068;-69
2020/12/01 17:16:25;;;;;;;20.30;12.50;;;6.00;97.90;;;;;;8363912;28;20048;-69
2020/12/01 17:20:27;;;;;;;;;;;6.00;97.90;;;;;;8392957;28;20044;-70
2020/12/01 17:24:29;;;;;;;24.63;14.20;;;6.00;98.20;;;;;;8391319;28;19934;-69
2020/12/01 17:28:32;;;;;;;;;;;6.00;97.80;;;;;;8393482;28;20044;-69
2020/12/01 17:32:55;;;;;;;22.30;13.70;;;6.10;97.90;;;;;;8392872;28;19924;-69
2020/12/01 17:37:04;;;;;;;;;;;6.30;97.70;;;;;;8397100;28;20036;-69
2020/12/01 17:41:20;;;;;;;26.27;15.57;;;6.10;98.00;;;;;;8395690;28;19920;-69
2020/12/01 17:45:37;;;;;;;26.88;16.13;;;6.10;97.40;;;;;;8398956;28;20082;-69
2020/12/01 17:49:59;;;;;;;31.00;16.90;;;6.10;97.40;;;;;;8393517;28;20046;-69
2020/12/01 17:54:21;;;;;;;25.90;16.73;;;6.10;97.20;;;;;;8425057;28;20119;-70
2020/12/01 17:58:23;;;;;;;26.23;16.15;;;6.10;97.20;;;;;;8402196;28;20044;-69
2020/12/01 18:02:25;;;;;;;26.77;16.23;;;6.20;97.30;;;;;;8400292;28;20040;-69
2020/12/01 18:06:28;;;;;;;26.60;17.23;;;6.10;97.20;;;;;;8402443;28;20052;-70
2020/12/01 18:10:33;;;;;;;29.15;18.52;;;6.20;97.10;;;;;;8399645;28;20040;-69
2020/12/01 18:14:53;;;;;;;27.27;17.87;;;6.20;97.00;;;;;;8402805;28;20092;-69
2020/12/01 18:19:16;;;;;;;25.27;16.30;;;6.20;96.90;;;;;;8399445;28;20048;-69
2020/12/01 18:23:30;;;;;;;25.83;16.83;;;6.20;97.10;;;;;;8413303;27;20044;-69
2020/12/01 18:27:38;;;;;;;25.80;15.27;;;6.20;97.10;;;;;;8409802;28;20059;-69
2020/12/01 18:31:48;;;;;;;23.63;15.18;;;6.20;97.00;;;;;;8409514;28;20063;-70
2020/12/01 18:35:52;;;;;;;23.40;15.50;;;6.20;97.00;;;;;;8406740;28;20329;-69
2020/12/01 18:39:54;;;;;;;21.75;14.43;;;6.20;97.00;;;;;;8397349;28;20052;-69
2020/12/01 18:44:01;;;;;;;;;;;6.20;96.90;;;;;;8396856;28;20394;-69
2020/12/01 18:48:03;;;;;;;23.65;15.38;;;6.20;96.90;;;;;;8412536;27;20384;-69
2020/12/01 18:52:05;;;;;;;34.33;19.95;;;6.20;96.90;;;;;;8400966;28;20476;-70
2020/12/01 18:56:07;;;;;;;30.05;17.02;;;6.20;96.90;;;;;;8406162;28;20043;-69
2020/12/01 19:00:09;;;;;;;;;;;6.20;96.80;;;;;;8411790;27;20109;-70
2020/12/01 19:04:10;;;;;;;49.63;21.70;;;6.20;97.00;;;;;;8399472;28;19928;-68
2020/12/01 19:08:13;;;;;;;28.37;17.90;;;6.10;96.90;;;;;;8395992;28;20344;-69
2020/12/01 19:12:14;;;;;;;30.98;19.27;;;6.20;96.80;;;;;;8406902;28;20517;-69
2020/12/01 19:16:18;;;;;;;30.00;16.67;;;6.20;96.80;;;;;;8399861;28;20121;-69
2020/12/01 19:20:19;;;;;;;28.08;16.73;;;6.20;96.60;;;;;;8391168;27;20048;-69
2020/12/01 19:24:24;;;;;;;29.13;18.02;;;6.20;96.70;;;;;;8396033;28;20056;-70
2020/12/01 19:28:26;;;;;;;31.25;19.45;;;6.20;96.70;;;;;;8388321;28;20054;-69
2020/12/01 19:32:27;;;;;;;30.53;18.03;;;6.10;96.70;;;;;;8396789;28;20060;-70
2020/12/01 19:36:29;;;;;;;30.47;18.17;;;6.10;96.70;;;;;;8388571;28;20062;-70
2020/12/01 19:40:32;;;;;;;31.17;18.13;;;6.20;96.80;;;;;;8406584;27;20200;-69
2020/12/01 19:44:33;;;;;;;29.42;17.50;;;6.20;96.80;;;;;;8393836;28;20464;-68
2020/12/01 19:48:35;;;;;;;30.80;19.43;;;6.20;96.80;;;;;;8388600;28;20048;-70
2020/12/01 19:52:36;;;;;;;29.47;17.93;;;6.20;96.70;;;;;;8394788;28;20048;-69
2020/12/01 19:56:37;;;;;;;31.60;19.37;;;6.20;96.70;;;;;;8395682;28;20044;-70
2020/12/01 20:00:39;;;;;;;31.55;19.75;;;6.20;96.60;;;;;;8396776;28;20039;-70
2020/12/01 20:04:41;;;;;;;53.85;30.75;;;6.30;96.70;;;;;;8399867;28;20074;-69
2020/12/01 20:08:43;;;;;;;;;;;6.30;96.70;;;;;;8395082;28;20071;-70
2020/12/01 20:12:45;;;;;;;33.13;21.13;;;6.30;96.70;;;;;;8395659;28;19970;-69
2020/12/01 20:16:47;;;;;;;31.30;20.93;;;6.50;96.80;;;;;;8395267;28;20052;-69
2020/12/01 20:20:48;;;;;;;31.17;19.20;;;6.30;96.80;;;;;;8392875;28;20081;-70
2020/12/01 20:25:00;;;;;;;33.55;19.13;;;6.40;96.70;;;;;;8412454;28;20045;-69
2020/12/01 20:29:02;;;;;;;;;;;6.60;96.70;;;;;;8391566;28;20052;-70
2020/12/01 20:33:04;;;;;;;34.35;19.05;;;6.40;96.80;;;;;;8394775;28;19931;-70
2020/12/01 20:37:11;;;;;;;32.47;18.55;;;6.40;96.70;;;;;;8394651;28;20055;-70
2020/12/01 20:41:13;;;;;;;31.73;18.48;;;6.40;96.60;;;;;;8393163;28;20121;-71
2020/12/01 20:45:14;;;;;;;36.58;19.45;;;6.40;96.60;;;;;;8400482;28;20036;-71
2020/12/01 20:49:16;;;;;;;;;;;6.40;96.60;;;;;;8395955;28;20105;-70
2020/12/01 20:53:19;;;;;;;;;;;6.30;96.60;;;;;;8390757;28;20388;-70
2020/12/01 20:57:21;;;;;;;28.92;17.92;;;6.30;96.60;;;;;;8394055;28;19920;-70
2020/12/01 21:01:23;;;;;;;31.10;17.83;;;6.30;96.90;;;;;;8405958;28;20052;-69
2020/12/01 21:05:25;;;;;;;26.10;16.42;;;6.40;96.60;;;;;;8391755;28;20060;-69
2020/12/01 21:09:27;;;;;;;26.67;17.30;;;6.40;96.60;;;;;;8394475;28;20101;-70
2020/12/01 21:13:46;;;;;;;29.98;17.27;;;6.40;96.60;;;;;;8390003;28;20060;-70
2020/12/01 21:18:10;;;;;;;28.10;16.83;;;6.40;96.60;;;;;;8390916;28;20105;-69
2020/12/01 21:22:11;;;;;;;31.67;18.27;;;6.50;96.70;;;;;;8417659;28;20067;-69
2020/12/01 21:26:35;;;;;;;27.77;16.95;;;6.50;96.60;;;;;;8381787;28;20110;-70
2020/12/01 21:30:51;;;;;;;26.33;16.95;;;6.50;96.50;;;;;;8399507;28;20105;-70
2020/12/01 21:34:59;;;;;;;27.85;17.38;;;6.50;96.50;;;;;;8392661;28;20071;-70
2020/12/01 21:39:05;;;;;;;30.63;16.08;;;6.50;96.50;;;;;;8391812;28;20760;-70
2020/12/01 21:43:12;;;;;;;29.17;17.17;;;6.60;96.60;;;;;;8406553;28;20048;-70
2020/12/01 21:47:18;;;;;;;29.08;17.52;;;6.60;96.60;;;;;;8391738;28;20169;-70
2020/12/01 21:51:37;;;;;;;28.10;17.33;;;6.60;96.50;;;;;;8398128;28;20056;-69
2020/12/01 21:55:47;;;;;;;30.27;18.70;;;6.60;96.60;;;;;;8399836;28;20074;-70
2020/12/01 22:00:08;;;;;;;27.92;17.67;;;6.60;96.60;;;;;;8411724;27;20052;-69
2020/12/01 22:04:31;;;;;;;30.27;18.13;;;6.60;96.60;;;;;;8408689;28;20049;-69
2020/12/01 22:08:50;;;;;;;31.17;18.50;;;6.50;96.50;;;;;;8395821;28;20053;-69
2020/12/01 22:13:19;;;;;;;29.60;17.75;;;6.40;96.80;;;;;;8399010;28;20056;-70